SHEQ weather

Public forecast

Using degrees Celsius for public forecast. Weather courtesy of forecast.io.

Closest aviation weather report (METAR) to El Conquistador Heliport

Closest report is Comodoro Arturo Merino Benítez International Airport, 6.9 nm (12.8 km) WSW. Retrieved 2020/08/14 01:00 UTC (46 minutes ago):

SCEL 140100Z 19009KT 9999 SCT180 10/05 Q1016 NOSIG

Closest aviation forecast (TAF) to El Conquistador Heliport

Closest forecast is Comodoro Arturo Merino Benítez International Airport, 6.9 nm (12.8 km) WSW. Retrieved 2020-08-14 00:00 UTC (2 hours ago):

TAF COR SCEL 132356Z 1400/1424 16004KT 8000 SCT180 SCT220 TX14/1418Z TN01/1410Z BECMG 1406/1408 6000 FEW008 TEMPO 1408/1414 VRB02KT 2000 BR SCT002 BKN008 BECMG 1415/1417 15008KT 8000 SCT015 BECMG 1417/1418 CAVOK